Time;durP1;ratioP1;P1;durP2;ratioP2;P2;SDS_P1;SDS_P2;PMS_P1;PMS_P2;Temp;Humidity;BMP_temperature;BMP_pressure;BME280_temperature;BME280_humidity;BME280_pressure;Samples;Min_cycle;Max_cycle;Signal;HPM_P1;HPM_P2
2022/02/22 00:00:00;;;;;;;24.52;4.22;;;6.90;76.00;;;;;;5093034;28;20039;-86
2022/02/22 00:02:27;;;;;;;18.25;4.07;;;6.80;76.00;;;;;;5088421;28;20048;-86
2022/02/22 00:04:54;;;;;;;21.02;4.13;;;6.80;76.00;;;;;;5096228;28;20300;-87
2022/02/22 00:07:25;;;;;;;27.80;4.95;;;6.80;76.00;;;;;;5094787;28;20040;-86
2022/02/22 00:09:52;;;;;;;21.05;4.35;;;6.80;76.00;;;;;;5093152;28;20059;-86
2022/02/22 00:12:19;;;;;;;21.58;3.55;;;6.80;76.00;;;;;;5094243;28;20047;-86
2022/02/22 00:14:46;;;;;;;24.25;4.97;;;6.80;76.00;;;;;;5091142;28;20055;-86
2022/02/22 00:17:13;;;;;;;22.42;4.75;;;6.80;76.00;;;;;;5090954;28;20039;-85
2022/02/22 00:19:43;;;;;;;17.90;3.88;;;6.80;76.00;;;;;;5097249;28;20055;-87
2022/02/22 00:22:10;;;;;;;23.33;4.15;;;6.70;76.00;;;;;;5092547;28;20051;-87
2022/02/22 00:24:37;;;;;;;24.63;5.22;;;6.80;76.00;;;;;;5092096;28;20048;-86
2022/02/22 00:27:04;;;;;;;19.60;3.92;;;6.70;76.00;;;;;;5094356;28;20051;-85
2022/02/22 00:29:31;;;;;;;18.98;3.90;;;6.70;76.00;;;;;;5088685;28;20052;-86
2022/02/22 00:31:58;;;;;;;19.55;4.00;;;6.70;75.90;;;;;;5094852;28;20418;-86
2022/02/22 00:34:25;;;;;;;19.98;3.97;;;6.70;75.90;;;;;;5094252;28;20052;-86
2022/02/22 00:36:52;;;;;;;20.63;4.03;;;6.70;75.90;;;;;;5092366;28;20079;-86
2022/02/22 00:39:19;;;;;;;17.77;4.10;;;6.70;75.90;;;;;;5091980;28;20089;-86
2022/02/22 00:41:46;;;;;;;19.15;3.55;;;6.70;75.90;;;;;;5090700;28;20051;-86
2022/02/22 00:44:12;;;;;;;18.55;3.97;;;6.60;75.90;;;;;;5090560;28;20047;-86
2022/02/22 00:46:40;;;;;;;19.98;3.80;;;6.70;75.90;;;;;;5095650;28;20146;-86
2022/02/22 00:49:08;;;;;;;21.60;4.28;;;6.60;75.90;;;;;;5088274;28;20054;-85
2022/02/22 00:51:36;;;;;;;20.00;4.07;;;6.60;75.90;;;;;;5093245;28;20082;-86
2022/02/22 00:54:03;;;;;;;18.17;4.57;;;6.60;75.90;;;;;;5093311;28;20397;-86
2022/02/22 00:56:30;;;;;;;23.10;4.00;;;6.60;75.90;;;;;;5092884;28;20056;-88
2022/02/22 00:58:56;;;;;;;19.90;4.10;;;6.50;75.90;;;;;;5092307;28;20056;-87
2022/02/22 01:01:23;;;;;;;24.05;4.68;;;6.50;75.90;;;;;;5092968;28;20044;-86
2022/02/22 01:03:50;;;;;;;23.67;4.47;;;6.50;75.90;;;;;;5092758;28;20051;-87
2022/02/22 01:06:17;;;;;;;17.45;3.72;;;6.50;75.90;;;;;;5091526;28;20505;-85
2022/02/22 01:08:44;;;;;;;17.02;3.83;;;6.50;75.90;;;;;;5092127;28;20070;-85
2022/02/22 01:11:11;;;;;;;19.17;4.15;;;6.40;76.00;;;;;;5091509;28;20044;-85
2022/02/22 01:13:38;;;;;;;25.15;4.88;;;6.40;76.00;;;;;;5092356;28;20044;-85
2022/02/22 01:16:05;;;;;;;15.73;3.83;;;6.40;76.00;;;;;;5091631;28;20055;-85
2022/02/22 01:18:32;;;;;;;19.00;4.40;;;6.40;76.00;;;;;;5074074;28;20460;-86
2022/02/22 01:20:59;;;;;;;26.58;5.05;;;6.40;76.10;;;;;;5091389;28;20044;-85
2022/02/22 01:23:27;;;;;;;23.23;5.22;;;6.40;76.10;;;;;;5091724;28;20051;-85
2022/02/22 01:25:56;;;;;;;21.63;4.78;;;6.40;76.10;;;;;;5074111;28;20048;-86
2022/02/22 01:28:23;;;;;;;17.23;3.95;;;6.40;76.10;;;;;;5091448;28;20490;-86
2022/02/22 01:30:50;;;;;;;18.45;4.43;;;6.40;76.10;;;;;;5091528;28;20049;-84
2022/02/22 01:33:17;;;;;;;21.73;4.57;;;6.40;76.10;;;;;;5091458;28;20048;-86
2022/02/22 01:35:45;;;;;;;24.92;4.55;;;6.30;76.10;;;;;;5091627;28;20051;-85
2022/02/22 01:38:11;;;;;;;21.15;4.45;;;6.30;76.10;;;;;;5091522;28;20514;-85
2022/02/22 01:40:39;;;;;;;24.88;5.07;;;6.30;76.20;;;;;;5091824;28;20467;-86
2022/02/22 01:43:05;;;;;;;17.80;4.18;;;6.30;76.20;;;;;;5073431;28;20049;-86
2022/02/22 01:45:34;;;;;;;18.52;4.57;;;6.20;76.20;;;;;;5091286;28;20048;-85
2022/02/22 01:48:03;;;;;;;20.75;4.20;;;6.20;76.20;;;;;;5091389;28;20517;-86
2022/02/22 01:50:31;;;;;;;24.92;4.40;;;6.20;76.20;;;;;;5094802;28;20052;-85
2022/02/22 01:52:59;;;;;;;26.00;4.75;;;6.20;76.20;;;;;;5095625;28;20138;-86
2022/02/22 01:55:26;;;;;;;23.60;4.10;;;6.20;76.20;;;;;;5094362;28;20048;-85
2022/02/22 01:57:53;;;;;;;25.75;4.07;;;6.20;76.20;;;;;;5095186;28;20044;-86
2022/02/22 02:00:20;;;;;;;24.40;5.15;;;6.20;76.30;;;;;;5095130;28;20051;-86
2022/02/22 02:02:51;;;;;;;27.33;5.22;;;6.20;76.30;;;;;;5095142;28;20044;-86
2022/02/22 02:05:18;;;;;;;26.45;4.75;;;6.20;76.30;;;;;;5077233;28;20082;-85
2022/02/22 02:07:45;;;;;;;24.38;4.72;;;6.20;76.30;;;;;;5095762;28;20051;-85
2022/02/22 02:10:13;;;;;;;24.55;4.90;;;6.10;76.30;;;;;;5094857;28;20113;-86
2022/02/22 02:12:40;;;;;;;24.08;4.68;;;6.20;76.30;;;;;;5094860;28;20456;-86
2022/02/22 02:15:08;;;;;;;18.45;3.90;;;6.10;76.30;;;;;;5094742;28;20509;-86
2022/02/22 02:17:35;;;;;;;20.30;4.25;;;6.10;76.30;;;;;;5094912;28;20051;-86
2022/02/22 02:20:04;;;;;;;19.90;5.22;;;6.10;76.30;;;;;;5095188;28;20127;-86
2022/02/22 02:22:31;;;;;;;19.00;4.63;;;6.10;76.30;;;;;;5095125;28;20040;-86
2022/02/22 02:24:58;;;;;;;22.48;4.55;;;6.10;76.30;;;;;;5094207;28;20056;-86
2022/02/22 02:27:25;;;;;;;19.45;4.68;;;6.00;76.30;;;;;;5094634;28;20044;-86
2022/02/22 02:29:54;;;;;;;16.50;4.22;;;6.10;76.30;;;;;;5110382;28;20109;-86
2022/02/22 02:32:21;;;;;;;24.98;5.10;;;6.10;76.30;;;;;;5078294;28;20059;-86
2022/02/22 02:34:48;;;;;;;24.42;4.18;;;6.00;76.30;;;;;;5095047;28;20052;-86
2022/02/22 02:37:15;;;;;;;23.90;4.65;;;6.00;76.30;;;;;;5094566;28;20503;-86
2022/02/22 02:39:43;;;;;;;22.40;4.40;;;6.00;76.30;;;;;;5093900;28;20044;-86
2022/02/22 02:42:10;;;;;;;20.48;4.68;;;6.00;76.40;;;;;;5094322;28;20051;-85
2022/02/22 02:44:37;;;;;;;26.85;5.30;;;6.00;76.30;;;;;;5094411;28;20125;-87
2022/02/22 02:47:07;;;;;;;17.77;3.85;;;6.00;76.30;;;;;;5094509;28;20087;-86
2022/02/22 02:49:34;;;;;;;20.90;5.07;;;6.00;76.30;;;;;;5076830;28;20048;-86
2022/02/22 02:52:01;;;;;;;21.38;4.85;;;6.00;76.30;;;;;;5094130;28;20059;-85
2022/02/22 02:54:27;;;;;;;22.50;4.88;;;6.00;76.40;;;;;;5093739;28;20540;-85
2022/02/22 02:56:54;;;;;;;23.10;4.47;;;6.00;76.40;;;;;;5094209;28;20044;-85
2022/02/22 02:59:23;;;;;;;28.80;5.03;;;6.00;76.40;;;;;;5078029;28;20567;-86
2022/02/22 03:01:50;;;;;;;19.25;4.65;;;6.00;76.40;;;;;;5093741;28;20048;-86
2022/02/22 03:04:17;;;;;;;21.58;4.88;;;6.00;76.40;;;;;;5093754;28;20048;-86
2022/02/22 03:06:45;;;;;;;22.98;4.57;;;5.90;76.30;;;;;;5076133;28;20044;-85
2022/02/22 03:09:12;;;;;;;21.80;3.90;;;6.00;76.40;;;;;;5093525;28;20051;-86
2022/02/22 03:11:40;;;;;;;21.30;4.82;;;5.90;76.40;;;;;;5093903;28;20040;-86
2022/02/22 03:14:08;;;;;;;24.33;4.57;;;5.90;76.40;;;;;;5093925;28;20421;-87
2022/02/22 03:16:35;;;;;;;22.75;4.63;;;5.90;76.40;;;;;;5092172;28;20417;-87
2022/02/22 03:19:03;;;;;;;21.02;4.28;;;5.90;76.40;;;;;;5093529;28;20048;-87
2022/02/22 03:21:33;;;;;;;24.63;4.78;;;5.90;76.40;;;;;;5093305;28;20036;-86
2022/02/22 03:24:01;;;;;;;28.95;5.30;;;5.90;76.50;;;;;;5093565;28;20052;-85
2022/02/22 03:26:29;;;;;;;30.35;5.20;;;5.90;76.50;;;;;;5093665;28;20072;-86
2022/02/22 03:28:58;;;;;;;25.38;4.68;;;5.90;76.60;;;;;;5076085;28;20048;-86
2022/02/22 03:31:29;;;;;;;26.77;5.15;;;5.90;76.70;;;;;;5075988;28;20052;-85
2022/02/22 03:33:57;;;;;;;23.52;4.72;;;5.80;76.70;;;;;;5093318;28;20060;-86
2022/02/22 03:36:27;;;;;;;24.67;5.53;;;5.80;76.80;;;;;;5092962;28;20048;-86
2022/02/22 03:38:54;;;;;;;27.17;5.00;;;5.80;76.90;;;;;;5093461;28;20055;-86
2022/02/22 03:41:23;;;;;;;31.48;5.80;;;5.80;77.00;;;;;;5093233;28;20066;-85
2022/02/22 03:43:50;;;;;;;22.95;4.35;;;5.80;77.10;;;;;;5076031;28;20052;-85
2022/02/22 03:46:17;;;;;;;24.30;4.88;;;5.80;77.10;;;;;;5092967;28;20044;-87
2022/02/22 03:48:44;;;;;;;22.25;5.30;;;5.80;77.20;;;;;;5093119;28;20052;-86
2022/02/22 03:51:12;;;;;;;21.77;4.68;;;5.80;77.30;;;;;;5092498;28;20044;-86
2022/02/22 03:53:40;;;;;;;28.05;5.00;;;5.80;77.40;;;;;;5093046;28;20051;-85
2022/02/22 03:56:08;;;;;;;24.05;4.80;;;5.80;77.40;;;;;;5093020;28;20121;-85
2022/02/22 03:58:35;;;;;;;27.45;5.50;;;5.80;77.50;;;;;;5091336;28;20052;-85
2022/02/22 04:01:02;;;;;;;26.83;5.18;;;5.80;77.60;;;;;;5092816;28;20044;-85
2022/02/22 04:03:29;;;;;;;23.73;5.32;;;5.80;77.70;;;;;;5074736;28;20108;-86
2022/02/22 04:05:56;;;;;;;21.42;4.95;;;5.80;77.70;;;;;;5092478;28;20097;-85
2022/02/22 04:08:23;;;;;;;31.38;5.85;;;5.80;77.80;;;;;;5075216;28;20044;-85
2022/02/22 04:10:50;;;;;;;21.17;5.13;;;5.80;77.90;;;;;;5093223;28;20052;-85
2022/02/22 04:13:17;;;;;;;26.15;5.47;;;5.80;77.90;;;;;;5092460;28;20052;-85
2022/02/22 04:15:46;;;;;;;24.10;4.65;;;5.80;78.00;;;;;;5092457;28;20089;-87
2022/02/22 04:18:13;;;;;;;18.98;4.50;;;5.80;78.10;;;;;;5092526;28;20040;-87
2022/02/22 04:20:40;;;;;;;28.55;5.10;;;5.80;78.10;;;;;;5092357;28;20063;-86
2022/02/22 04:23:07;;;;;;;30.48;5.82;;;5.80;78.20;;;;;;5074521;28;20044;-86
2022/02/22 04:25:34;;;;;;;25.52;5.22;;;5.80;78.20;;;;;;5092917;28;20052;-85
2022/02/22 04:28:01;;;;;;;25.45;5.32;;;5.80;78.30;;;;;;5099109;28;20053;-85
2022/02/22 04:30:28;;;;;;;23.70;5.80;;;5.80;78.30;;;;;;5085151;28;20048;-86
2022/02/22 04:32:59;;;;;;;31.90;5.55;;;5.80;78.40;;;;;;5092330;28;20105;-86
2022/02/22 04:35:26;;;;;;;22.92;5.03;;;5.80;78.40;;;;;;5091863;28;20048;-86
2022/02/22 04:37:53;;;;;;;24.83;5.13;;;5.80;78.50;;;;;;5075010;28;20055;-85
2022/02/22 04:40:20;;;;;;;29.77;5.68;;;5.80;78.60;;;;;;5074239;28;20048;-86
2022/02/22 04:42:49;;;;;;;29.05;5.82;;;5.90;78.70;;;;;;5092158;28;20040;-85
2022/02/22 04:45:16;;;;;;;29.90;6.00;;;5.90;78.80;;;;;;5092121;28;20054;-86
2022/02/22 04:47:44;;;;;;;27.20;5.40;;;5.90;78.90;;;;;;5092218;28;20040;-85
2022/02/22 04:50:11;;;;;;;35.65;6.20;;;5.90;78.90;;;;;;5091718;28;20131;-85
2022/02/22 04:52:38;;;;;;;32.15;6.22;;;5.90;79.10;;;;;;5092467;28;20056;-85
2022/02/22 04:55:06;;;;;;;28.83;5.78;;;5.90;79.20;;;;;;5073970;28;20417;-87
2022/02/22 04:57:37;;;;;;;35.72;6.28;;;5.90;79.30;;;;;;5091865;28;20118;-86
2022/02/22 05:00:12;;;;;;;28.15;5.82;;;5.90;79.40;;;;;;5092007;28;20060;-85
2022/02/22 05:02:39;;;;;;;44.90;7.18;;;5.90;79.50;;;;;;5091957;28;20040;-85
2022/02/22 05:05:07;;;;;;;32.10;7.07;;;5.90;79.60;;;;;;5091391;28;20048;-85
2022/02/22 05:07:34;;;;;;;39.25;7.10;;;6.00;79.70;;;;;;5092335;28;20048;-86
2022/02/22 05:10:01;;;;;;;35.85;7.22;;;6.00;79.90;;;;;;5091723;28;20055;-85
2022/02/22 05:12:28;;;;;;;39.40;7.55;;;6.00;80.00;;;;;;5091900;28;20062;-85
2022/02/22 05:14:55;;;;;;;34.03;6.50;;;6.10;80.10;;;;;;5091552;28;20060;-85
2022/02/22 05:17:22;;;;;;;36.10;6.15;;;6.10;80.20;;;;;;5091701;28;20063;-85
2022/02/22 05:19:48;;;;;;;36.80;7.30;;;6.10;80.30;;;;;;5091911;28;20048;-85
2022/02/22 05:22:15;;;;;;;37.28;6.50;;;6.10;80.40;;;;;;5091607;28;20051;-85
2022/02/22 05:24:42;;;;;;;34.42;6.70;;;6.20;80.50;;;;;;5093654;28;20440;-85
2022/02/22 05:27:09;;;;;;;41.22;7.60;;;6.20;80.50;;;;;;5095752;28;20055;-85
2022/02/22 05:29:36;;;;;;;39.58;7.05;;;6.20;80.50;;;;;;5095864;28;20044;-85
2022/02/22 05:32:06;;;;;;;39.90;7.43;;;6.20;80.60;;;;;;5095626;28;20055;-85
2022/02/22 05:34:34;;;;;;;48.10;8.07;;;6.30;80.70;;;;;;5096110;28;20051;-85
2022/02/22 05:37:03;;;;;;;31.40;6.93;;;6.30;80.80;;;;;;5095507;28;20464;-85
2022/02/22 05:39:30;;;;;;;44.15;6.95;;;6.30;80.80;;;;;;5095723;28;20083;-85
2022/02/22 05:41:57;;;;;;;40.22;7.20;;;6.30;80.80;;;;;;5095699;28;20067;-85
2022/02/22 05:44:24;;;;;;;39.30;6.75;;;6.30;80.90;;;;;;5079371;28;20048;-86
2022/02/22 05:46:51;;;;;;;39.15;6.95;;;6.40;81.00;;;;;;5095804;28;20130;-85
2022/02/22 05:49:18;;;;;;;34.50;7.32;;;6.40;81.00;;;;;;5095465;28;20048;-86
2022/02/22 05:51:45;;;;;;;45.85;7.28;;;6.40;81.10;;;;;;5095160;28;20509;-86
2022/02/22 05:54:12;;;;;;;38.28;7.28;;;6.40;81.10;;;;;;5095202;28;20051;-87
2022/02/22 05:56:39;;;;;;;51.28;9.05;;;6.40;81.10;;;;;;5095591;28;20044;-87
2022/02/22 05:59:07;;;;;;;54.33;9.13;;;6.40;81.20;;;;;;5095364;28;20395;-86
2022/02/22 06:01:34;;;;;;;40.22;7.28;;;6.40;81.20;;;;;;5095346;28;20074;-85
2022/02/22 06:04:01;;;;;;;46.13;7.97;;;6.50;81.30;;;;;;5094934;28;20048;-86
2022/02/22 06:06:28;;;;;;;47.95;8.50;;;6.40;81.30;;;;;;5095165;28;20044;-86
2022/02/22 06:08:55;;;;;;;41.25;7.78;;;6.50;81.30;;;;;;5095209;28;20048;-86
2022/02/22 06:11:22;;;;;;;47.33;8.75;;;6.50;81.40;;;;;;5095291;28;20510;-86
2022/02/22 06:13:50;;;;;;;65.40;9.57;;;6.50;81.40;;;;;;5095594;28;20109;-86
2022/02/22 06:16:19;;;;;;;45.63;8.18;;;6.50;81.50;;;;;;5094540;28;20413;-86
2022/02/22 06:18:46;;;;;;;37.53;7.80;;;6.50;81.50;;;;;;5094919;28;20063;-86
2022/02/22 06:21:13;;;;;;;48.00;9.05;;;6.60;81.60;;;;;;5076934;28;20079;-85
2022/02/22 06:23:40;;;;;;;45.47;8.20;;;6.60;81.60;;;;;;5094740;28;20044;-86
2022/02/22 06:26:07;;;;;;;54.10;9.38;;;6.60;81.60;;;;;;5094921;28;20075;-85
2022/02/22 06:28:35;;;;;;;39.50;8.65;;;6.60;81.70;;;;;;5095163;28;20051;-86
2022/02/22 06:31:02;;;;;;;37.33;8.55;;;6.60;81.70;;;;;;5094269;28;20043;-85
2022/02/22 06:33:29;;;;;;;63.33;9.25;;;6.60;81.70;;;;;;5094486;28;20040;-85
2022/02/22 06:35:56;;;;;;;46.92;9.30;;;6.60;81.70;;;;;;5094597;28;20109;-85
2022/02/22 06:38:24;;;;;;;51.40;9.15;;;6.60;81.70;;;;;;5078595;28;20119;-85
2022/02/22 06:40:51;;;;;;;45.72;9.38;;;6.60;81.80;;;;;;5090678;28;20056;-84
2022/02/22 06:43:18;;;;;;;53.33;9.00;;;6.60;81.80;;;;;;5094327;28;20044;-85
2022/02/22 06:45:46;;;;;;;41.38;8.50;;;6.60;81.80;;;;;;5093834;28;20051;-86
2022/02/22 06:48:14;;;;;;;49.38;8.60;;;6.60;81.80;;;;;;5094291;28;20048;-86
2022/02/22 06:50:42;;;;;;;45.15;9.02;;;6.60;81.80;;;;;;5094416;28;20048;-85
2022/02/22 06:53:11;;;;;;;53.78;10.45;;;6.60;81.80;;;;;;5094191;28;20063;-85
2022/02/22 06:55:39;;;;;;;47.35;9.25;;;6.60;81.80;;;;;;5093032;28;20061;-85
2022/02/22 06:58:09;;;;;;;47.40;8.80;;;6.60;81.80;;;;;;5094175;28;20048;-85
2022/02/22 07:00:38;;;;;;;51.17;9.40;;;6.70;81.90;;;;;;5093741;28;20051;-86
2022/02/22 07:03:05;;;;;;;58.00;9.88;;;6.60;81.90;;;;;;5093944;28;20044;-88
2022/02/22 07:05:33;;;;;;;58.85;9.95;;;6.60;81.90;;;;;;5093963;28;20093;-85
2022/02/22 07:08:01;;;;;;;53.63;9.80;;;6.60;81.90;;;;;;5094210;28;20506;-85
2022/02/22 07:10:29;;;;;;;54.40;10.18;;;6.60;82.00;;;;;;5075564;28;20464;-85
2022/02/22 07:12:56;;;;;;;58.90;9.68;;;6.60;82.00;;;;;;5101377;28;20044;-87
2022/02/22 07:15:23;;;;;;;64.97;10.77;;;6.60;82.00;;;;;;5067876;28;20476;-86
2022/02/22 07:17:56;;;;;;;44.15;9.40;;;6.60;82.10;;;;;;5093892;28;20052;-86
2022/02/22 07:20:25;;;;;;;50.22;9.25;;;6.60;82.10;;;;;;5077679;28;20040;-86
2022/02/22 07:22:55;;;;;;;48.92;10.45;;;6.70;82.20;;;;;;5094386;28;20059;-86
2022/02/22 07:25:24;;;;;;;62.10;9.90;;;6.60;82.20;;;;;;5093622;28;20437;-86
2022/02/22 07:27:51;;;;;;;53.50;10.35;;;6.60;82.20;;;;;;5093482;28;20102;-86
2022/02/22 07:30:19;;;;;;;56.70;10.70;;;6.70;82.30;;;;;;5093172;28;20063;-86
2022/02/22 07:32:47;;;;;;;62.10;10.75;;;6.70;82.30;;;;;;5093569;28;20158;-86
2022/02/22 07:35:15;;;;;;;59.47;8.77;;;6.70;82.30;;;;;;5093538;28;20055;-88
2022/02/22 07:37:44;;;;;;;59.85;10.15;;;6.60;82.30;;;;;;5094284;28;20048;-87
2022/02/22 07:40:13;;;;;;;48.22;10.13;;;6.70;82.40;;;;;;5093218;28;20059;-87
2022/02/22 07:42:42;;;;;;;64.85;10.27;;;6.70;82.40;;;;;;5092869;28;20043;-87
2022/02/22 07:45:10;;;;;;;57.28;9.90;;;6.70;82.40;;;;;;5093106;28;20051;-87
2022/02/22 07:47:37;;;;;;;74.72;10.82;;;6.70;82.40;;;;;;5092751;28;20551;-87
2022/02/22 07:50:05;;;;;;;69.93;11.63;;;6.70;82.50;;;;;;5093229;28;20052;-86
2022/02/22 07:52:33;;;;;;;59.30;10.65;;;6.70;82.50;;;;;;5093645;28;20052;-86
2022/02/22 07:55:01;;;;;;;70.30;12.10;;;6.70;82.60;;;;;;5091111;28;20518;-86
2022/02/22 07:57:28;;;;;;;56.92;10.07;;;6.70;82.60;;;;;;5093318;28;20051;-86
2022/02/22 07:59:55;;;;;;;64.88;10.98;;;6.80;82.70;;;;;;5090048;28;20464;-86
2022/02/22 08:02:22;;;;;;;61.70;11.35;;;6.80;82.80;;;;;;5094671;28;20518;-86
2022/02/22 08:04:50;;;;;;;74.65;11.45;;;6.80;82.80;;;;;;5086008;28;20479;-86
2022/02/22 08:07:20;;;;;;;70.20;11.55;;;6.80;82.90;;;;;;5092958;28;20048;-85
2022/02/22 08:09:48;;;;;;;90.50;13.18;;;6.80;82.90;;;;;;5076884;28;20039;-86
2022/02/22 08:12:15;;;;;;;81.40;12.75;;;6.90;83.00;;;;;;5075485;28;20044;-86
2022/02/22 08:14:42;;;;;;;64.30;10.93;;;6.90;83.00;;;;;;5090786;28;20055;-87
2022/02/22 08:17:09;;;;;;;79.28;10.85;;;6.90;83.10;;;;;;5093682;28;20036;-87
2022/02/22 08:19:37;;;;;;;87.40;12.10;;;6.90;83.10;;;;;;5094805;28;20139;-87
2022/02/22 08:22:04;;;;;;;76.10;12.55;;;6.90;83.20;;;;;;5093819;28;20048;-87
2022/02/22 08:24:31;;;;;;;66.93;11.55;;;7.00;83.30;;;;;;5092719;28;20545;-87
2022/02/22 08:27:00;;;;;;;69.47;10.95;;;6.90;83.30;;;;;;5092224;28;20519;-87
2022/02/22 08:29:27;;;;;;;58.15;11.75;;;7.00;83.40;;;;;;5071702;28;20048;-87
2022/02/22 08:31:54;;;;;;;66.53;11.20;;;7.00;83.40;;;;;;5096909;28;20048;-87
2022/02/22 08:34:21;;;;;;;61.42;11.32;;;7.10;83.40;;;;;;5091764;28;20079;-88
2022/02/22 08:36:48;;;;;;;59.97;11.35;;;7.10;83.50;;;;;;5074755;28;20478;-87
2022/02/22 08:39:15;;;;;;;58.25;10.90;;;7.20;83.50;;;;;;5075040;28;20055;-87
2022/02/22 08:41:43;;;;;;;80.00;12.98;;;7.20;83.50;;;;;;5091375;28;20051;-88
2022/02/22 08:44:10;;;;;;;75.18;13.50;;;7.20;83.50;;;;;;5092431;28;20051;-88
2022/02/22 08:46:37;;;;;;;80.22;13.90;;;7.20;83.60;;;;;;5094757;28;20501;-86
2022/02/22 08:49:05;;;;;;;83.20;14.70;;;7.30;83.60;;;;;;5076219;28;20051;-88
2022/02/22 08:51:31;;;;;;;85.93;13.60;;;7.30;83.70;;;;;;5094893;28;20108;-89
2022/02/22 08:54:00;;;;;;;63.03;13.00;;;7.40;83.70;;;;;;5095503;28;20046;-88
2022/02/22 08:56:27;;;;;;;92.95;14.25;;;7.40;83.80;;;;;;5087532;28;20136;-87
2022/02/22 08:58:54;;;;;;;81.30;14.07;;;7.40;83.80;;;;;;5095298;28;20052;-86
2022/02/22 09:01:21;;;;;;;75.07;12.98;;;7.40;83.80;;;;;;5091434;28;20536;-86
2022/02/22 09:03:48;;;;;;;77.32;14.73;;;7.50;83.80;;;;;;5073769;28;20044;-86
2022/02/22 09:06:15;;;;;;;83.00;15.63;;;7.50;83.90;;;;;;5092036;28;20127;-84
2022/02/22 09:08:42;;;;;;;74.40;14.55;;;7.50;83.90;;;;;;5089770;28;20041;-84
2022/02/22 09:11:09;;;;;;;62.00;14.32;;;7.60;84.00;;;;;;5091273;28;20097;-86
2022/02/22 09:13:36;;;;;;;53.00;10.82;;;7.60;84.00;;;;;;5094225;28;20040;-86
2022/02/22 09:16:04;;;;;;;54.17;12.68;;;7.60;84.00;;;;;;5093830;28;20048;-85
2022/02/22 09:18:32;;;;;;;57.40;12.15;;;7.70;84.10;;;;;;5093387;28;20498;-86
2022/02/22 09:20:59;;;;;;;48.60;12.15;;;7.70;84.10;;;;;;5093627;28;20417;-86
2022/02/22 09:23:26;;;;;;;55.13;12.40;;;7.70;84.20;;;;;;5087985;28;20044;-87
2022/02/22 09:25:55;;;;;;;57.25;13.00;;;7.70;84.20;;;;;;5103105;28;20061;-85
2022/02/22 09:28:22;;;;;;;46.80;12.02;;;7.80;84.30;;;;;;5091634;28;20056;-86
2022/02/22 09:30:49;;;;;;;48.15;11.57;;;7.80;84.30;;;;;;5091760;28;20487;-85
2022/02/22 09:33:17;;;;;;;41.22;10.18;;;7.80;84.40;;;;;;5091279;28;20051;-85
2022/02/22 09:35:48;;;;;;;44.53;10.73;;;7.80;84.40;;;;;;5090482;28;20150;-88
2022/02/22 09:38:15;;;;;;;40.22;10.10;;;7.90;84.40;;;;;;5090087;28;23275;-88
2022/02/22 09:40:42;;;;;;;52.97;11.52;;;7.90;84.50;;;;;;5094080;28;20522;-87
2022/02/22 09:43:11;;;;;;;41.90;11.35;;;7.90;84.50;;;;;;5091647;28;20133;-87
2022/02/22 09:45:39;;;;;;;37.72;10.98;;;7.90;84.50;;;;;;5091563;28;20103;-87
2022/02/22 09:48:06;;;;;;;43.22;10.98;;;7.90;84.50;;;;;;5076685;28;20044;-88
2022/02/22 09:50:35;;;;;;;40.28;10.50;;;7.90;84.50;;;;;;5088394;28;20048;-87
2022/02/22 09:53:03;;;;;;;38.45;9.95;;;7.90;84.50;;;;;;5092881;28;20464;-88
2022/02/22 09:55:30;;;;;;;37.22;9.98;;;8.00;84.60;;;;;;5096415;28;20490;-88
2022/02/22 09:57:57;;;;;;;33.28;8.52;;;8.00;84.60;;;;;;5093321;28;20123;-87
2022/02/22 10:00:27;;;;;;;35.92;8.48;;;8.00;84.60;;;;;;5091630;28;20040;-87
2022/02/22 10:03:01;;;;;;;34.90;7.70;;;8.10;84.70;;;;;;5092280;28;20421;-87
2022/02/22 10:05:29;;;;;;;33.00;8.93;;;8.10;84.70;;;;;;5071758;28;20045;-87
2022/02/22 10:07:58;;;;;;;31.20;7.30;;;8.10;84.70;;;;;;5094558;28;20040;-86
2022/02/22 10:10:42;;;;;;;29.80;7.93;;;8.10;84.70;;;;;;5093976;28;20055;-86
2022/02/22 10:13:17;;;;;;;29.38;7.72;;;8.20;84.80;;;;;;5095186;28;20066;-85
2022/02/22 10:15:44;;;;;;;29.27;7.07;;;8.20;84.80;;;;;;5112450;27;20040;-86
2022/02/22 10:18:12;;;;;;;26.73;7.03;;;8.20;84.80;;;;;;5094832;28;20046;-87
2022/02/22 10:20:40;;;;;;;30.70;7.05;;;8.20;84.80;;;;;;5092739;28;20052;-86
2022/02/22 10:23:07;;;;;;;27.23;6.28;;;8.30;84.90;;;;;;5095014;28;20437;-87
2022/02/22 10:25:36;;;;;;;20.85;6.30;;;8.40;84.90;;;;;;5096630;28;20059;-86
2022/02/22 10:28:05;;;;;;;23.90;5.93;;;8.40;84.90;;;;;;5094993;28;20047;-86
2022/02/22 10:30:43;;;;;;;24.98;6.45;;;8.40;85.00;;;;;;5095121;28;20048;-86
2022/02/22 10:33:15;;;;;;;19.80;6.22;;;8.40;85.00;;;;;;5096378;28;20127;-87
2022/02/22 10:36:04;;;;;;;23.40;6.25;;;8.40;85.00;;;;;;5094429;28;20052;-86
2022/02/22 10:38:34;;;;;;;18.27;5.88;;;8.40;85.00;;;;;;5083619;28;20052;-87
2022/02/22 10:41:13;;;;;;;23.00;6.22;;;8.40;85.10;;;;;;5096017;28;20444;-86
2022/02/22 10:43:51;;;;;;;16.88;5.50;;;8.40;85.10;;;;;;5097401;28;20066;-85
2022/02/22 10:46:26;;;;;;;18.45;6.03;;;8.50;85.10;;;;;;5094869;28;20053;-86
2022/02/22 10:49:13;;;;;;;19.08;6.20;;;8.50;85.20;;;;;;5094233;28;20059;-85
2022/02/22 10:51:48;;;;;;;25.90;6.40;;;8.60;85.20;;;;;;5094181;28;20148;-87
2022/02/22 10:54:17;;;;;;;22.08;6.68;;;8.60;85.20;;;;;;5097712;28;20044;-86
2022/02/22 10:56:46;;;;;;;20.35;6.57;;;8.70;85.30;;;;;;5092416;28;20040;-86
2022/02/22 10:59:22;;;;;;;18.90;6.15;;;8.70;85.30;;;;;;5092533;28;20060;-86
2022/02/22 11:01:50;;;;;;;20.33;6.95;;;8.70;85.40;;;;;;5098116;28;20056;-86
2022/02/22 11:04:21;;;;;;;23.08;7.50;;;8.70;85.40;;;;;;5096305;28;20098;-86
2022/02/22 11:06:48;;;;;;;19.90;7.32;;;8.70;85.50;;;;;;5093820;28;20128;-86
2022/02/22 11:09:20;;;;;;;21.63;6.38;;;8.80;85.50;;;;;;5094341;28;20048;-88
2022/02/22 11:11:56;;;;;;;;;;;8.80;85.60;;;;;;5078296;28;20043;-86
2022/02/22 11:14:29;;;;;;;16.98;7.35;;;8.90;85.70;;;;;;5090245;28;20027;-87
2022/02/22 11:17:02;;;;;;;18.35;7.80;;;8.90;85.70;;;;;;5106046;28;20055;-88
2022/02/22 11:19:39;;;;;;;23.60;7.82;;;8.90;85.70;;;;;;5097552;28;20044;-87
2022/02/22 11:22:17;;;;;;;21.20;8.30;;;8.90;85.80;;;;;;5092740;28;20113;-87
2022/02/22 11:24:50;;;;;;;13.90;6.70;;;9.00;85.80;;;;;;5093763;28;20039;-87
2022/02/22 11:27:41;;;;;;;18.90;7.38;;;9.00;85.90;;;;;;5078992;28;20544;-87
2022/02/22 11:30:15;;;;;;;19.77;7.85;;;9.00;85.90;;;;;;5093991;28;20043;-86
2022/02/22 11:32:59;;;;;;;20.90;7.25;;;9.10;86.00;;;;;;5091691;28;20047;-87
2022/02/22 11:35:28;;;;;;;23.80;8.73;;;9.20;86.00;;;;;;5073372;28;20040;-87
2022/02/22 11:38:08;;;;;;;21.35;7.82;;;9.20;86.00;;;;;;5105804;28;20047;-86
2022/02/22 11:40:38;;;;;;;21.25;7.82;;;9.20;86.00;;;;;;5095581;28;20052;-86
2022/02/22 11:43:13;;;;;;;22.40;7.45;;;9.30;86.10;;;;;;5093408;28;20411;-87
2022/02/22 11:45:43;;;;;;;24.70;7.75;;;9.30;86.10;;;;;;5093565;28;20123;-87
2022/02/22 11:48:14;;;;;;;26.58;8.90;;;9.40;86.10;;;;;;5093540;28;20055;-87
2022/02/22 11:50:44;;;;;;;23.98;7.97;;;9.40;86.00;;;;;;5092461;28;20044;-87
2022/02/22 11:53:13;;;;;;;27.45;8.65;;;9.50;86.00;;;;;;5075177;28;20441;-87
2022/02/22 11:55:41;;;;;;;17.77;7.72;;;9.50;86.00;;;;;;5095886;28;20101;-86
2022/02/22 11:58:22;;;;;;;20.27;8.23;;;9.50;86.00;;;;;;5078481;28;20430;-87
2022/02/22 12:00:54;;;;;;;28.05;8.48;;;9.50;86.00;;;;;;5078272;28;20095;-86
2022/02/22 12:03:23;;;;;;;23.10;8.65;;;9.60;85.90;;;;;;5092788;28;20117;-87
2022/02/22 12:05:57;;;;;;;25.13;8.27;;;9.60;85.90;;;;;;5092042;28;20062;-86
2022/02/22 12:08:25;;;;;;;;;;;9.70;85.90;;;;;;5073024;28;20517;-87
2022/02/22 12:11:00;;;;;;;18.80;7.18;;;9.70;85.90;;;;;;5104508;28;19923;-87
2022/02/22 12:13:43;;;;;;;13.55;6.82;;;9.70;85.80;;;;;;5094694;28;20544;-86
2022/02/22 12:16:22;;;;;;;20.88;8.40;;;9.80;85.80;;;;;;5092670;28;20059;-86
2022/02/22 12:18:50;;;;;;;16.77;7.22;;;9.80;85.80;;;;;;5092542;28;20058;-87
2022/02/22 12:21:22;;;;;;;20.00;8.00;;;9.80;85.70;;;;;;5093185;28;20052;-86
2022/02/22 12:23:50;;;;;;;22.30;8.98;;;9.90;85.70;;;;;;5091116;28;20055;-87
2022/02/22 12:26:20;;;;;;;22.13;8.05;;;9.90;85.60;;;;;;5090940;28;20052;-86
2022/02/22 12:28:51;;;;;;;22.13;8.40;;;9.90;85.60;;;;;;5079450;28;20087;-86
2022/02/22 12:31:31;;;;;;;32.47;9.27;;;9.90;85.50;;;;;;5094135;28;20059;-86
2022/02/22 12:34:01;;;;;;;23.65;9.57;;;10.00;85.50;;;;;;5077341;28;20080;-87
2022/02/22 12:36:29;;;;;;;23.30;9.00;;;10.00;85.40;;;;;;5092969;28;20044;-87
2022/02/22 12:39:02;;;;;;;31.90;9.50;;;10.10;85.40;;;;;;5092919;28;20055;-87
2022/02/22 12:41:42;;;;;;;24.83;8.23;;;10.10;85.30;;;;;;5074578;28;20055;-88
2022/02/22 12:44:12;;;;;;;21.80;8.70;;;10.10;85.30;;;;;;5072785;28;20142;-85
2022/02/22 12:46:41;;;;;;;20.80;7.70;;;10.20;85.30;;;;;;5094629;28;20044;-85
2022/02/22 12:49:10;;;;;;;23.38;8.68;;;10.20;85.30;;;;;;5077037;28;20084;-87
2022/02/22 12:51:38;;;;;;;18.10;8.77;;;10.20;85.20;;;;;;5093957;28;20062;-87